Time;durP1;ratioP1;P1;durP2;ratioP2;P2;SDS_P1;SDS_P2;PMS_P1;PMS_P2;Temp;Humidity;BMP_temperature;BMP_pressure;BME280_temperature;BME280_humidity;BME280_pressure;Samples;Min_cycle;Max_cycle;Signal;HPM_P1;HPM_P2
2023/12/18 00:00:36;;;;;;;74.93;48.28;;;;;;;0.15;100.00;101809.88;4986696;28;20041;-78
2023/12/18 00:03:02;;;;;;;71.13;46.80;;;;;;;0.14;100.00;101809.88;4982507;28;20509;-78
2023/12/18 00:05:28;;;;;;;71.43;47.20;;;;;;;0.12;100.00;101806.47;4983789;28;20415;-78
2023/12/18 00:07:53;;;;;;;70.80;46.60;;;;;;;0.25;100.00;101816.63;4983637;28;20058;-78
2023/12/18 00:10:19;;;;;;;73.53;47.13;;;;;;;0.27;100.00;101814.88;4986496;28;20038;-79
2023/12/18 00:12:44;;;;;;;72.53;46.60;;;;;;;0.25;100.00;101813.19;4979800;28;20038;-79
2023/12/18 00:15:10;;;;;;;74.80;48.45;;;;;;;0.18;100.00;101802.03;4982957;28;20056;-80
2023/12/18 00:17:36;;;;;;;72.15;47.78;;;;;;;0.16;100.00;101797.75;4984358;28;20045;-78
2023/12/18 00:20:02;;;;;;;76.75;50.03;;;;;;;0.15;100.00;101791.69;4984392;28;20022;-79
2023/12/18 00:22:27;;;;;;;76.35;48.13;;;;;;;0.13;100.00;101801.22;4983659;28;20120;-78
2023/12/18 00:24:53;;;;;;;72.82;47.70;;;;;;;0.20;100.00;101800.28;5012993;28;20048;-78
2023/12/18 00:27:18;;;;;;;74.95;48.30;;;;;;;0.15;100.00;101794.28;4983483;28;20081;-79
2023/12/18 00:29:43;;;;;;;74.03;47.83;;;;;;;0.19;100.00;101788.16;4986064;28;20105;-79
2023/12/18 00:32:09;;;;;;;75.22;47.22;;;;;;;0.20;100.00;101791.63;4982269;28;20038;-78
2023/12/18 00:34:34;;;;;;;68.85;44.97;;;;;;;-0.18;100.00;101787.00;5009112;28;20521;-78
2023/12/18 00:37:00;;;;;;;74.70;46.33;;;;;;;-0.15;100.00;101787.78;4984444;28;20038;-79
2023/12/18 00:39:25;;;;;;;66.82;44.53;;;;;;;-0.12;100.00;101782.56;4984538;28;20205;-79
2023/12/18 00:41:51;;;;;;;71.65;45.83;;;;;;;-0.12;100.00;101789.50;4982847;28;20073;-79
2023/12/18 00:44:17;;;;;;;73.85;47.75;;;;;;;-0.24;100.00;101781.88;4985680;28;20110;-79
2023/12/18 00:46:43;;;;;;;70.57;47.05;;;;;;;-0.20;100.00;101775.75;4982322;28;20090;-79
2023/12/18 00:49:09;;;;;;;73.32;45.97;;;;;;;-0.11;100.00;101773.88;4986000;28;20026;-79
2023/12/18 00:51:34;;;;;;;73.20;47.03;;;;;;;-0.07;100.00;101769.53;4982076;28;21461;-78
2023/12/18 00:54:00;;;;;;;69.28;45.47;;;;;;;-0.06;100.00;101773.84;4982695;28;20026;-79
2023/12/18 00:56:25;;;;;;;65.30;44.80;;;;;;;-0.09;100.00;101771.28;4982008;28;20085;-78
2023/12/18 00:58:50;;;;;;;67.32;44.08;;;;;;;-0.08;100.00;101773.00;4985944;28;20069;-78
2023/12/18 01:01:16;;;;;;;68.78;45.67;;;;;;;-0.12;100.00;101776.53;4983433;28;20038;-78
2023/12/18 01:03:41;;;;;;;72.40;48.25;;;;;;;-0.25;100.00;101769.78;4978437;28;20078;-78
2023/12/18 01:06:07;;;;;;;71.15;47.50;;;;;;;-0.26;100.00;101768.94;4985425;28;20034;-78
2023/12/18 01:08:32;;;;;;;72.70;47.10;;;;;;;-0.23;100.00;101762.81;4988194;28;20038;-78
2023/12/18 01:10:57;;;;;;;74.30;47.10;;;;;;;-0.30;100.00;101763.81;4982490;28;20030;-78
2023/12/18 01:13:23;;;;;;;77.47;48.88;;;;;;;-0.35;100.00;101757.81;4989311;28;20371;-78
2023/12/18 01:15:49;;;;;;;78.45;48.80;;;;;;;-0.26;100.00;101768.06;4982362;28;20058;-78
2023/12/18 01:18:14;;;;;;;72.25;47.30;;;;;;;-0.19;100.00;101764.50;4991762;28;20042;-78
2023/12/18 01:20:39;;;;;;;69.80;46.60;;;;;;;-0.21;100.00;101766.25;4985851;28;20088;-78
2023/12/18 01:23:05;;;;;;;70.88;47.15;;;;;;;-0.21;100.00;101768.84;4990445;28;20407;-78
2023/12/18 01:25:31;;;;;;;73.43;46.65;;;;;;;-0.43;100.00;101771.75;4988239;28;20321;-79
2023/12/18 01:27:57;;;;;;;74.57;49.28;;;;;;;-0.53;100.00;101759.75;4989011;28;20077;-78
2023/12/18 01:30:22;;;;;;;72.93;46.75;;;;;;;-0.41;100.00;101758.72;4988754;28;20061;-79
2023/12/18 01:32:48;;;;;;;71.30;46.90;;;;;;;-0.31;100.00;101769.88;4982002;28;20097;-78
2023/12/18 01:35:13;;;;;;;72.95;48.05;;;;;;;-0.26;100.00;101762.88;5002132;28;20054;-78
2023/12/18 01:37:39;;;;;;;76.05;47.80;;;;;;;-0.23;100.00;101762.81;5003058;28;20082;-77
2023/12/18 01:40:05;;;;;;;73.07;46.83;;;;;;;-0.24;100.00;101761.13;5000734;28;20119;-78
2023/12/18 01:42:31;;;;;;;76.45;48.40;;;;;;;-0.24;100.00;101755.94;5003912;28;20487;-77
2023/12/18 01:44:56;;;;;;;68.38;45.97;;;;;;;-0.27;100.00;101762.00;4998891;28;20089;-77
2023/12/18 01:47:22;;;;;;;69.85;45.97;;;;;;;-0.28;100.00;101767.22;5003746;28;20041;-77
2023/12/18 01:49:49;;;;;;;75.28;48.40;;;;;;;-0.25;100.00;101764.59;4985094;28;20109;-79
2023/12/18 01:52:15;;;;;;;73.68;47.40;;;;;;;-0.48;100.00;101760.56;4990825;28;20356;-79
2023/12/18 01:54:40;;;;;;;70.53;46.03;;;;;;;-0.43;100.00;101756.19;4984708;28;20478;-79
2023/12/18 01:57:06;;;;;;;72.00;47.58;;;;;;;-0.35;100.00;101752.63;4988064;28;20077;-79
2023/12/18 01:59:32;;;;;;;71.47;45.60;;;;;;;-0.39;100.00;101741.44;4981608;28;20038;-79
2023/12/18 02:01:58;;;;;;;73.53;46.38;;;;;;;-0.45;100.00;101747.56;4985848;28;20041;-78
2023/12/18 02:04:24;;;;;;;70.78;47.88;;;;;;;-0.49;100.00;101748.47;4985192;28;20116;-78
2023/12/18 02:06:50;;;;;;;69.10;46.15;;;;;;;-0.49;100.00;101750.22;5016698;28;20495;-77
2023/12/18 02:09:16;;;;;;;69.75;45.53;;;;;;;-0.48;100.00;101752.78;4985837;28;20035;-78
2023/12/18 02:11:47;;;;;;;72.03;46.60;;;;;;;-0.50;100.00;101749.34;4988725;28;20130;-78
2023/12/18 02:14:13;;;;;;;72.18;46.72;;;;;;;-0.43;100.00;101740.63;4985355;28;20026;-79
2023/12/18 02:16:38;;;;;;;71.07;46.40;;;;;;;-0.39;100.00;101735.38;4988333;28;20489;-78
2023/12/18 02:19:04;;;;;;;69.25;46.35;;;;;;;-0.37;100.00;101736.22;4988699;28;20590;-79
2023/12/18 02:21:29;;;;;;;69.85;45.67;;;;;;;-0.35;100.00;101729.28;4986068;28;20045;-79
2023/12/18 02:23:55;;;;;;;69.80;47.47;;;;;;;-0.35;100.00;101722.34;4984503;28;20023;-79
2023/12/18 02:26:22;;;;;;;66.47;45.60;;;;;;;-0.34;100.00;101718.00;4988296;28;20034;-80
2023/12/18 02:28:47;;;;;;;70.68;47.80;;;;;;;-0.29;100.00;101722.25;4980428;28;20034;-79
2023/12/18 02:31:14;;;;;;;64.55;44.83;;;;;;;-0.38;100.00;101718.94;4981484;28;20080;-80
2023/12/18 02:33:41;;;;;;;68.70;46.75;;;;;;;-0.26;100.00;101716.19;4985026;28;20106;-77
2023/12/18 02:36:07;;;;;;;71.63;45.88;;;;;;;-0.19;100.00;101712.63;4987859;28;20044;-79
2023/12/18 02:38:32;;;;;;;68.35;45.28;;;;;;;-0.21;100.00;101704.00;4984068;28;20085;-79
2023/12/18 02:40:59;;;;;;;67.55;44.22;;;;;;;-0.21;100.00;101709.19;4986615;28;20057;-79
2023/12/18 02:43:25;;;;;;;68.75;45.33;;;;;;;-0.20;100.00;101705.72;4985774;28;20038;-79
2023/12/18 02:45:50;;;;;;;72.18;45.38;;;;;;;-0.24;100.00;101693.66;4987582;28;20038;-79
2023/12/18 02:48:16;;;;;;;70.13;44.47;;;;;;;-0.30;100.00;101693.75;4985147;28;20129;-79
2023/12/18 02:50:41;;;;;;;67.82;43.80;;;;;;;-0.24;100.00;101701.47;4986945;28;20390;-78
2023/12/18 02:53:06;;;;;;;63.17;43.33;;;;;;;-0.30;100.00;101693.75;4983830;28;20529;-78
2023/12/18 02:55:32;;;;;;;65.82;43.53;;;;;;;-0.38;100.00;101690.41;4987144;28;20030;-79
2023/12/18 02:57:57;;;;;;;68.78;43.70;;;;;;;-0.58;100.00;101686.34;4986089;28;20035;-78
2023/12/18 03:00:23;;;;;;;67.15;44.60;;;;;;;-0.72;100.00;101693.47;4988099;28;20030;-78
2023/12/18 03:02:48;;;;;;;74.05;45.70;;;;;;;-0.60;100.00;101690.72;4983743;28;20128;-79
2023/12/18 03:05:14;;;;;;;72.05;47.13;;;;;;;-0.47;100.00;101686.19;4983458;28;20547;-79
2023/12/18 03:07:40;;;;;;;69.95;44.88;;;;;;;-0.43;100.00;101683.56;4983673;28;20034;-79
2023/12/18 03:10:06;;;;;;;65.25;45.80;;;;;;;-0.50;100.00;101687.13;4987001;28;20545;-79
2023/12/18 03:12:31;;;;;;;69.50;45.20;;;;;;;-0.53;100.00;101692.31;4983336;28;20066;-78
2023/12/18 03:14:57;;;;;;;68.88;44.45;;;;;;;-0.55;100.00;101685.47;4987019;28;20034;-78
2023/12/18 03:17:22;;;;;;;70.40;45.80;;;;;;;-0.45;100.00;101685.31;4989104;28;20101;-79
2023/12/18 03:19:48;;;;;;;71.43;44.53;;;;;;;-0.37;100.00;101684.34;4986173;28;20805;-79
2023/12/18 03:22:13;;;;;;;67.53;43.42;;;;;;;-0.30;100.00;101688.56;4982037;28;20054;-78
2023/12/18 03:24:39;;;;;;;67.78;44.88;;;;;;;-0.32;100.00;101686.00;4986458;28;20522;-79
2023/12/18 03:27:05;;;;;;;66.28;43.10;;;;;;;-0.32;100.00;101679.94;4983470;28;20077;-79
2023/12/18 03:29:30;;;;;;;66.25;43.63;;;;;;;-0.40;100.00;101677.44;4987063;28;20057;-79
2023/12/18 03:31:56;;;;;;;69.78;44.10;;;;;;;-0.46;100.00;101678.41;4983630;28;20069;-78
2023/12/18 03:34:21;;;;;;;65.45;43.97;;;;;;;-0.51;100.00;101679.34;4987103;28;20390;-78
2023/12/18 03:36:47;;;;;;;68.43;45.33;;;;;;;-0.57;100.00;101674.25;5013486;28;20436;-78
2023/12/18 03:39:12;;;;;;;68.25;44.42;;;;;;;-0.58;100.00;101673.38;4985265;28;20030;-80
2023/12/18 03:41:37;;;;;;;66.10;44.95;;;;;;;-0.64;100.00;101670.88;4983008;28;20030;-80
2023/12/18 03:44:03;;;;;;;68.88;44.80;;;;;;;-0.70;100.00;101667.50;4983478;28;20022;-78
2023/12/18 03:46:28;;;;;;;68.93;45.88;;;;;;;-0.77;100.00;101656.38;4985376;28;20399;-79
2023/12/18 03:48:54;;;;;;;67.78;44.38;;;;;;;-0.82;100.00;101663.34;4981091;28;20080;-80
2023/12/18 03:51:19;;;;;;;67.93;45.38;;;;;;;-0.86;100.00;101656.47;4981916;28;20046;-79
2023/12/18 03:53:45;;;;;;;70.50;45.67;;;;;;;-0.84;100.00;101654.75;5016841;28;20486;-80
2023/12/18 03:56:10;;;;;;;68.38;45.45;;;;;;;-0.85;100.00;101653.88;4982016;28;20089;-80
2023/12/18 03:58:36;;;;;;;67.95;44.92;;;;;;;-0.85;100.00;101658.22;4984713;28;20088;-78
2023/12/18 04:01:02;;;;;;;67.05;45.45;;;;;;;-0.79;100.00;101652.94;4983029;28;20030;-81
2023/12/18 04:03:27;;;;;;;65.88;44.85;;;;;;;-0.74;100.00;101653.72;4985886;28;20117;-79
2023/12/18 04:05:53;;;;;;;70.30;46.17;;;;;;;-0.73;100.00;101658.03;4982515;28;20034;-79
2023/12/18 04:08:18;;;;;;;87.97;47.92;;;;;;;-0.70;100.00;101662.31;4985918;28;20041;-79
2023/12/18 04:10:44;;;;;;;69.43;45.20;;;;;;;-0.72;100.00;101659.75;5014624;28;20046;-79
2023/12/18 04:13:09;;;;;;;71.70;48.17;;;;;;;-0.63;100.00;101663.94;4983825;28;20184;-79
2023/12/18 04:15:34;;;;;;;67.80;46.47;;;;;;;-0.58;100.00;101655.22;4982275;28;20649;-80
2023/12/18 04:18:00;;;;;;;65.82;46.55;;;;;;;-0.57;100.00;101654.34;4990186;28;20045;-80
2023/12/18 04:20:25;;;;;;;70.00;46.22;;;;;;;-0.85;100.00;101658.22;4982169;28;20082;-80
2023/12/18 04:22:51;;;;;;;66.30;46.05;;;;;;;-0.78;100.00;101661.59;4985440;28;20101;-79
2023/12/18 04:25:17;;;;;;;59.47;42.75;;;;;;;-0.71;100.00;101651.13;4982011;28;20173;-79
2023/12/18 04:27:43;;;;;;;57.55;42.05;;;;;;;-0.69;100.00;101654.53;4985747;28;20101;-80
2023/12/18 04:30:10;;;;;;;56.03;41.15;;;;;;;-0.66;100.00;101654.50;4985770;28;20031;-79
2023/12/18 04:32:36;;;;;;;59.75;42.80;;;;;;;-0.67;100.00;101652.78;4985175;28;20047;-81
2023/12/18 04:35:02;;;;;;;62.17;43.20;;;;;;;-0.78;100.00;101644.28;4983628;28;20090;-79
2023/12/18 04:37:27;;;;;;;58.88;43.08;;;;;;;-0.88;100.00;101647.88;4982283;28;20402;-78
2023/12/18 04:39:52;;;;;;;61.05;43.70;;;;;;;-0.95;100.00;101635.88;4981642;28;20031;-78
2023/12/18 04:42:18;;;;;;;63.95;43.10;;;;;;;-1.02;100.00;101634.25;4988128;28;20034;-78
2023/12/18 04:44:43;;;;;;;63.05;44.58;;;;;;;-1.13;100.00;101636.13;4981723;28;20031;-78
2023/12/18 04:47:08;;;;;;;60.78;43.75;;;;;;;-1.13;100.00;101636.13;4985591;28;20121;-78
2023/12/18 04:49:34;;;;;;;66.93;45.13;;;;;;;-1.16;100.00;101630.94;4982649;28;20035;-78
2023/12/18 04:51:59;;;;;;;63.90;43.53;;;;;;;-1.13;100.00;101626.59;4986783;28;20026;-80
2023/12/18 04:54:25;;;;;;;63.20;43.75;;;;;;;-1.06;100.00;101637.75;4985900;28;20042;-79
2023/12/18 04:56:50;;;;;;;69.88;46.70;;;;;;;-1.03;100.00;101628.19;4989289;28;20037;-79
2023/12/18 04:59:16;;;;;;;64.78;43.70;;;;;;;-1.01;100.00;101628.19;5019195;28;20493;-79
2023/12/18 05:01:41;;;;;;;68.18;45.05;;;;;;;-0.98;100.00;101633.31;4985257;28;20038;-78
2023/12/18 05:04:06;;;;;;;67.28;44.90;;;;;;;-1.03;100.00;101632.53;4986688;28;20451;-78
2023/12/18 05:06:32;;;;;;;66.78;45.13;;;;;;;-1.07;100.00;101620.50;4988237;28;20074;-79
2023/12/18 05:08:57;;;;;;;66.07;44.38;;;;;;;-1.05;100.00;101623.91;4987683;28;20037;-77
2023/12/18 05:11:24;;;;;;;63.75;45.75;;;;;;;-1.02;100.00;101629.06;4986598;28;20093;-80
2023/12/18 05:13:50;;;;;;;67.35;44.80;;;;;;;-0.98;100.00;101635.91;4984521;28;20055;-77
2023/12/18 05:16:18;;;;;;;70.18;46.33;;;;;;;-0.94;100.00;101627.22;4986340;28;20034;-78
2023/12/18 05:18:44;;;;;;;66.88;44.22;;;;;;;-0.91;100.00;101622.00;4987338;28;20598;-77
2023/12/18 05:21:10;;;;;;;62.75;43.67;;;;;;;-1.04;100.00;101630.81;4985019;28;20118;-78
2023/12/18 05:23:36;;;;;;;58.33;42.20;;;;;;;-1.14;100.00;101629.22;4991883;28;20070;-78
2023/12/18 05:26:01;;;;;;;57.28;41.78;;;;;;;-1.24;100.00;101623.28;4986845;28;20117;-78
2023/12/18 05:28:27;;;;;;;63.45;44.63;;;;;;;-1.24;100.00;101631.06;4987441;28;20030;-79
2023/12/18 05:30:53;;;;;;;61.85;44.22;;;;;;;-1.25;100.00;101637.97;4986644;28;20491;-78
2023/12/18 05:33:19;;;;;;;65.47;43.60;;;;;;;-1.19;100.00;101637.03;4985215;28;20120;-78
2023/12/18 05:35:44;;;;;;;61.58;43.92;;;;;;;-1.15;100.00;101636.13;4987529;28;20498;-78
2023/12/18 05:38:10;;;;;;;65.15;44.17;;;;;;;-1.12;100.00;101627.47;4984682;28;20516;-78
2023/12/18 05:40:36;;;;;;;68.57;45.80;;;;;;;-1.17;100.00;101630.09;4988379;28;20034;-78
2023/12/18 05:43:02;;;;;;;69.55;46.38;;;;;;;-1.13;100.00;101636.13;4986569;28;20482;-78
2023/12/18 05:45:28;;;;;;;67.03;45.92;;;;;;;-1.29;100.00;101628.50;4986931;28;20038;-77
2023/12/18 05:47:54;;;;;;;69.05;45.13;;;;;;;-1.41;100.00;101633.81;4984550;28;20030;-76
2023/12/18 05:50:20;;;;;;;70.85;46.17;;;;;;;-1.28;100.00;101627.63;4988419;28;20490;-77
2023/12/18 05:52:45;;;;;;;66.72;46.08;;;;;;;-1.47;100.00;101631.28;5018290;28;20046;-76
2023/12/18 05:55:11;;;;;;;66.53;45.55;;;;;;;-1.43;100.00;101633.00;4984655;28;20098;-78
2023/12/18 05:57:37;;;;;;;71.20;45.72;;;;;;;-1.46;100.00;101633.03;4985514;28;20067;-76
2023/12/18 06:00:04;;;;;;;69.95;44.47;;;;;;;-1.54;100.00;101634.84;4988207;28;20030;-77
2023/12/18 06:02:29;;;;;;;72.18;47.40;;;;;;;-1.45;100.00;101636.47;4986786;28;20055;-78
2023/12/18 06:04:55;;;;;;;73.05;45.70;;;;;;;-1.40;100.00;101638.13;4980272;28;20081;-76
2023/12/18 06:07:20;;;;;;;70.03;47.05;;;;;;;-1.39;100.00;101639.84;4980517;28;20490;-77
2023/12/18 06:09:46;;;;;;;63.83;43.80;;;;;;;-1.41;100.00;101641.59;4979085;28;20038;-76
2023/12/18 06:12:11;;;;;;;69.82;45.50;;;;;;;-1.47;100.00;101640.81;4978993;28;20108;-74
2023/12/18 06:14:37;;;;;;;74.00;46.83;;;;;;;-1.42;100.00;101634.72;4986360;28;20031;-74
2023/12/18 06:17:03;;;;;;;67.07;45.28;;;;;;;-1.35;100.00;101638.94;4987177;28;20030;-72
2023/12/18 06:19:29;;;;;;;70.50;45.78;;;;;;;-1.55;100.00;101638.31;4981772;28;20475;-74
2023/12/18 06:21:54;;;;;;;69.65;45.30;;;;;;;-1.39;100.00;101639.00;4981242;28;20038;-73
2023/12/18 06:24:19;;;;;;;69.38;46.22;;;;;;;-1.37;100.00;101645.88;4982863;28;20041;-75
2023/12/18 06:26:46;;;;;;;73.43;46.88;;;;;;;-1.49;100.00;101638.25;4987324;28;20387;-73
2023/12/18 06:29:11;;;;;;;74.18;46.75;;;;;;;-1.36;100.00;101637.25;4984973;28;20030;-75
2023/12/18 06:31:37;;;;;;;72.43;46.33;;;;;;;-1.32;100.00;101636.31;4986373;28;20449;-75
2023/12/18 06:34:03;;;;;;;72.25;46.80;;;;;;;-1.50;100.00;101626.16;4984908;28;20109;-75
2023/12/18 06:36:29;;;;;;;67.95;46.95;;;;;;;-1.39;100.00;101629.50;4979849;28;20154;-74
2023/12/18 06:38:54;;;;;;;73.07;46.58;;;;;;;-1.31;100.00;101632.88;4985889;28;20065;-74
2023/12/18 06:41:20;;;;;;;78.78;49.53;;;;;;;-1.31;100.00;101638.03;4980132;28;20050;-75
2023/12/18 06:43:46;;;;;;;76.75;46.65;;;;;;;-1.28;100.00;101642.31;4980481;28;20026;-73
2023/12/18 06:46:11;;;;;;;75.28;47.60;;;;;;;-1.29;100.00;101638.88;4982999;28;20436;-74
2023/12/18 06:48:39;;;;;;;73.63;47.03;;;;;;;-1.40;100.00;101642.44;4982184;28;20039;-73
2023/12/18 06:51:04;;;;;;;69.13;45.97;;;;;;;-1.34;100.00;101638.06;4980596;28;20034;-73
2023/12/18 06:53:29;;;;;;;71.30;45.70;;;;;;;-1.49;100.00;101648.59;4980165;28;20042;-73
2023/12/18 06:55:55;;;;;;;75.18;46.65;;;;;;;-1.47;100.00;101651.19;4986100;28;20022;-74
2023/12/18 06:58:20;;;;;;;70.50;45.92;;;;;;;-1.45;100.00;101641.66;4983330;28;20039;-74
2023/12/18 07:00:46;;;;;;;74.30;46.65;;;;;;;-1.50;100.00;101652.06;4986541;28;20113;-74
2023/12/18 07:03:11;;;;;;;71.32;45.50;;;;;;;-1.44;100.00;101644.22;4983179;28;20039;-74
2023/12/18 07:05:37;;;;;;;67.68;44.47;;;;;;;-1.50;100.00;101657.25;4982176;28;20044;-73
2023/12/18 07:08:02;;;;;;;68.82;43.72;;;;;;;-1.49;100.00;101658.09;4978647;28;20472;-72
2023/12/18 07:10:27;;;;;;;66.35;42.80;;;;;;;-1.47;100.00;101652.00;4983545;28;20487;-73
2023/12/18 07:12:53;;;;;;;64.60;43.08;;;;;;;-1.44;100.00;101662.34;4981845;28;20545;-75
2023/12/18 07:15:20;;;;;;;63.58;42.70;;;;;;;-1.37;100.00;101664.00;4977375;28;20158;-72
2023/12/18 07:17:46;;;;;;;65.97;44.33;;;;;;;-1.37;100.00;101668.31;4983928;28;20349;-74
2023/12/18 07:20:12;;;;;;;64.32;44.03;;;;;;;-1.35;100.00;101672.59;4986414;28;20092;-74
2023/12/18 07:22:39;;;;;;;66.55;44.03;;;;;;;-1.45;100.00;101668.41;4984296;28;20041;-74
2023/12/18 07:25:05;;;;;;;67.88;42.00;;;;;;;-1.55;100.00;101666.78;4982986;28;20069;-73
2023/12/18 07:27:30;;;;;;;66.35;42.10;;;;;;;-1.41;100.00;101675.25;4982654;28;20092;-75
2023/12/18 07:29:56;;;;;;;65.07;42.65;;;;;;;-1.31;100.00;101674.31;4982167;28;20038;-74
2023/12/18 07:32:21;;;;;;;65.30;43.00;;;;;;;-1.30;100.00;101672.56;4980677;28;20046;-75
2023/12/18 07:34:47;;;;;;;65.00;43.05;;;;;;;-1.36;100.00;101670.91;4982549;28;20117;-74
2023/12/18 07:37:13;;;;;;;69.32;43.83;;;;;;;-1.42;100.00;101676.16;4981752;28;20027;-75
2023/12/18 07:39:38;;;;;;;68.22;43.85;;;;;;;-1.39;100.00;101665.75;4984741;28;20026;-74
2023/12/18 07:42:04;;;;;;;63.58;42.47;;;;;;;-1.30;100.00;101670.84;4984352;28;20043;-74
2023/12/18 07:44:29;;;;;;;68.43;43.53;;;;;;;-1.44;100.00;101672.72;4984677;28;20042;-74
2023/12/18 07:46:55;;;;;;;70.22;43.72;;;;;;;-1.19;100.00;101667.28;4987919;28;20041;-74
2023/12/18 07:49:22;;;;;;;67.68;42.38;;;;;;;-1.07;100.00;101668.00;4983398;28;20042;-74
2023/12/18 07:51:48;;;;;;;66.20;43.65;;;;;;;-1.26;100.00;101675.09;4981298;28;20038;-73
2023/12/18 07:54:14;;;;;;;67.40;42.03;;;;;;;-1.24;100.00;101660.38;4981506;28;20045;-72
2023/12/18 07:56:40;;;;;;;65.57;43.10;;;;;;;-1.19;100.00;101662.09;4985014;28;20030;-73
2023/12/18 07:59:07;;;;;;;68.55;43.17;;;;;;;-1.18;100.00;101669.00;4983091;28;20156;-75
2023/12/18 08:01:34;;;;;;;67.18;43.03;;;;;;;-1.25;100.00;101669.06;4989475;28;20602;-77
2023/12/18 08:04:00;;;;;;;66.75;44.45;;;;;;;-1.37;100.00;101674.38;4985964;28;20065;-75
2023/12/18 08:06:25;;;;;;;68.93;44.45;;;;;;;-1.30;100.00;101673.44;4982598;28;20495;-75
2023/12/18 08:08:51;;;;;;;69.90;43.50;;;;;;;-1.12;100.00;101664.56;5015091;28;20041;-75
2023/12/18 08:11:16;;;;;;;66.20;44.42;;;;;;;-1.05;100.00;101666.22;4983045;28;20133;-77
2023/12/18 08:13:42;;;;;;;67.80;44.00;;;;;;;-1.13;100.00;101667.19;4985932;28;20125;-75
2023/12/18 08:16:09;;;;;;;69.50;45.30;;;;;;;-0.84;100.00;101662.53;4983161;28;20035;-75
2023/12/18 08:18:36;;;;;;;66.55;42.75;;;;;;;-0.68;100.00;101661.44;4984690;28;20386;-74
2023/12/18 08:21:03;;;;;;;68.85;43.55;;;;;;;-1.00;100.00;101671.38;4980029;28;20446;-78
2023/12/18 08:23:28;;;;;;;68.47;42.80;;;;;;;-0.95;100.00;101672.16;4984392;28;20030;-75
2023/12/18 08:25:54;;;;;;;67.57;45.00;;;;;;;-0.69;100.00;101670.06;4981253;28;20399;-76
2023/12/18 08:28:19;;;;;;;68.18;44.08;;;;;;;-0.70;100.00;101668.34;4985941;28;20034;-75
2023/12/18 08:30:44;;;;;;;73.80;45.92;;;;;;;-0.54;100.00;101669.88;4982620;28;20046;-75
2023/12/18 08:33:10;;;;;;;61.75;42.88;;;;;;;-0.66;100.00;101659.69;4986035;28;20022;-77
2023/12/18 08:35:35;;;;;;;72.60;45.65;;;;;;;-0.48;100.00;101659.44;4982962;28;20043;-76
2023/12/18 08:38:01;;;;;;;62.53;42.70;;;;;;;-0.35;100.00;101659.25;4985036;28;20026;-75
2023/12/18 08:40:29;;;;;;;66.93;43.95;;;;;;;-0.36;100.00;101657.53;4979353;28;20085;-75
2023/12/18 08:42:54;;;;;;;64.25;41.58;;;;;;;-0.22;100.00;101661.63;4966599;28;20476;-75
2023/12/18 08:45:20;;;;;;;66.53;41.97;;;;;;;-0.28;100.00;101660.84;4983368;28;20550;-76
2023/12/18 08:47:45;;;;;;;63.58;41.67;;;;;;;-0.12;100.00;101651.97;4987649;28;20030;-75
2023/12/18 08:50:10;;;;;;;65.50;41.60;;;;;;;0.11;100.00;101655.03;4989296;28;20054;-76
2023/12/18 08:52:36;;;;;;;62.95;40.17;;;;;;;0.23;100.00;101653.97;4989312;28;20157;-76
2023/12/18 08:55:03;;;;;;;63.05;40.33;;;;;;;0.35;100.00;101654.59;5021189;28;20374;-75
2023/12/18 08:57:29;;;;;;;62.00;40.97;;;;;;;0.45;100.00;101655.31;4987214;28;20018;-74
2023/12/18 08:59:55;;;;;;;62.42;39.50;;;;;;;0.41;100.00;101649.28;4981271;28;20040;-75
2023/12/18 09:02:21;;;;;;;60.53;40.53;;;;;;;0.58;100.00;101637.75;4985371;28;20045;-76
2023/12/18 09:04:46;;;;;;;65.05;39.67;;;;;;;0.72;100.00;101643.50;4982276;28;20466;-76
2023/12/18 09:07:12;;;;;;;60.80;39.72;;;;;;;0.59;100.00;101642.88;4982553;28;20403;-77
2023/12/18 09:09:39;;;;;;;62.83;41.53;;;;;;;0.70;100.00;101640.13;4985092;28;20034;-75
2023/12/18 09:12:06;;;;;;;65.53;41.08;;;;;;;0.81;100.00;101638.16;4982928;28;20042;-75
2023/12/18 09:14:31;;;;;;;61.17;39.95;;;;;;;0.90;100.00;101637.97;4983410;28;20404;-74
2023/12/18 09:16:58;;;;;;;61.42;39.95;;;;;;;0.98;100.00;101636.06;4986171;28;20386;-77
2023/12/18 09:19:24;;;;;;;64.70;40.08;;;;;;;1.07;100.00;101635.84;4986155;28;20034;-75
2023/12/18 09:21:49;;;;;;;63.60;40.22;;;;;;;1.21;100.00;101638.19;4981128;28;20034;-75
2023/12/18 09:24:15;;;;;;;66.38;42.08;;;;;;;1.30;100.00;101632.75;4984651;28;20046;-77
2023/12/18 09:26:40;;;;;;;68.68;41.40;;;;;;;1.38;100.00;101645.59;4982211;28;20023;-76
2023/12/18 09:29:05;;;;;;;59.95;40.53;;;;;;;1.43;100.00;101643.75;4984964;28;20086;-74
2023/12/18 09:31:31;;;;;;;62.83;39.97;;;;;;;1.54;100.00;101652.16;4982825;28;20034;-76
2023/12/18 09:33:57;;;;;;;63.95;40.95;;;;;;;1.61;100.00;101645.94;4982904;28;20240;-76
2023/12/18 09:36:23;;;;;;;60.50;40.80;;;;;;;1.74;100.00;101643.91;4985344;28;20730;-76
2023/12/18 09:38:49;;;;;;;64.38;41.92;;;;;;;1.84;100.00;101641.03;4984991;28;20069;-75
2023/12/18 09:41:24;;;;;;;61.25;40.45;;;;;;;1.94;100.00;101642.56;4985744;28;20031;-76
2023/12/18 09:43:54;;;;;;;63.63;41.33;;;;;;;2.02;100.00;101639.75;4986314;28;20121;-75
2023/12/18 09:46:24;;;;;;;62.90;40.53;;;;;;;2.09;100.00;101635.25;4986434;28;20041;-76
2023/12/18 09:48:50;;;;;;;59.88;39.88;;;;;;;2.20;100.00;101638.44;4987679;28;20183;-76
2023/12/18 09:51:19;;;;;;;63.72;40.58;;;;;;;2.30;100.00;101635.53;4986077;28;20066;-75
2023/12/18 09:53:45;;;;;;;63.42;39.75;;;;;;;2.41;100.00;101632.69;4987624;28;20078;-74
2023/12/18 09:56:11;;;;;;;61.08;40.88;;;;;;;2.49;100.00;101630.69;4985789;28;20370;-76
2023/12/18 09:58:39;;;;;;;67.72;41.47;;;;;;;2.51;100.00;101623.72;4987835;28;20546;-75
2023/12/18 10:01:07;;;;;;;58.85;40.53;;;;;;;2.63;100.00;101617.31;4985212;28;20030;-76
2023/12/18 10:03:33;;;;;;;68.15;41.10;;;;;;;2.71;100.00;101621.38;4987788;28;20042;-75
2023/12/18 10:05:58;;;;;;;63.65;40.92;;;;;;;2.76;100.00;101616.94;4984647;28;20035;-76
2023/12/18 10:08:24;;;;;;;57.72;37.63;;;;;;;2.85;100.00;101619.25;4985237;28;20112;-75
2023/12/18 10:10:50;;;;;;;65.60;40.83;;;;;;;2.92;100.00;101606.03;4984843;28;20124;-75
2023/12/18 10:13:16;;;;;;;62.95;40.72;;;;;;;2.97;100.00;101606.75;4982985;28;20082;-76
2023/12/18 10:15:44;;;;;;;60.67;40.25;;;;;;;3.00;100.00;101606.69;4982449;28;20204;-76
2023/12/18 10:18:10;;;;;;;56.50;38.17;;;;;;;3.04;100.00;101597.88;4984802;28;20031;-74
2023/12/18 10:20:36;;;;;;;59.80;38.75;;;;;;;3.06;100.00;101596.06;4987447;28;20030;-75
2023/12/18 10:23:04;;;;;;;57.95;36.25;;;;;;;3.14;100.00;101597.53;4984423;28;20018;-76
2023/12/18 10:25:31;;;;;;;58.25;37.15;;;;;;;3.25;100.00;101592.00;4987483;28;20398;-76
2023/12/18 10:27:56;;;;;;;58.30;37.35;;;;;;;3.32;100.00;101596.13;5013925;28;20034;-74
2023/12/18 10:30:29;;;;;;;59.20;38.13;;;;;;;3.38;100.00;101590.72;4985978;28;20503;-76
2023/12/18 10:32:56;;;;;;;52.78;36.40;;;;;;;3.47;100.00;101582.63;4980678;28;20030;-76
2023/12/18 10:35:22;;;;;;;53.33;36.45;;;;;;;3.55;100.00;101590.19;4987929;28;20125;-76
2023/12/18 10:37:52;;;;;;;54.72;35.65;;;;;;;3.61;100.00;101590.84;4984488;28;20039;-76
2023/12/18 10:40:19;;;;;;;56.03;34.83;;;;;;;3.70;100.00;101580.13;4984627;28;20041;-76
2023/12/18 10:42:54;;;;;;;52.08;33.65;;;;;;;3.78;100.00;101577.22;4979340;28;20105;-76
2023/12/18 10:45:21;;;;;;;55.47;34.58;;;;;;;3.85;100.00;101577.88;4984395;28;20125;-77
2023/12/18 10:47:47;;;;;;;56.05;35.33;;;;;;;3.91;100.00;101572.47;4986269;28;20627;-76
2023/12/18 10:50:16;;;;;;;56.90;34.50;;;;;;;3.97;100.00;101562.66;4983480;28;20066;-76
2023/12/18 10:52:46;;;;;;;51.03;32.70;;;;;;;4.03;100.00;101558.97;4989849;28;20043;-76
2023/12/18 10:55:16;;;;;;;42.10;26.10;;;;;;;4.09;100.00;101558.78;4986866;28;20138;-77
2023/12/18 10:57:44;;;;;;;54.67;32.20;;;;;;;4.15;100.00;101549.88;4983809;28;20038;-76